sensor_id;sensor_type;location;lat;lon;timestamp;pressure;altitude;pressure_sealevel;temperature;humidity
77077;BME280;66003;52.286;104.306;2023-12-28T00:00:40;96982.63;;;-1.18;45.74
77077;BME280;66003;52.286;104.306;2023-12-28T00:03:06;96976.63;;;-1.13;45.21
77077;BME280;66003;52.286;104.306;2023-12-28T00:05:32;96978.25;;;-1.12;45.33
77077;BME280;66003;52.286;104.306;2023-12-28T00:07:59;96978.16;;;-1.06;45.23
77077;BME280;66003;52.286;104.306;2023-12-28T00:10:26;96973.88;;;-1.19;44.55
77077;BME280;66003;52.286;104.306;2023-12-28T00:12:54;96976.97;;;-1.22;44.86
77077;BME280;66003;52.286;104.306;2023-12-28T00:15:21;96977.69;;;-1.26;45.04
77077;BME280;66003;52.286;104.306;2023-12-28T00:17:47;96966.97;;;-1.43;45.38
77077;BME280;66003;52.286;104.306;2023-12-28T00:20:13;96968.22;;;-1.45;45.38
77077;BME280;66003;52.286;104.306;2023-12-28T00:22:39;96969.16;;;-1.40;45.36
77077;BME280;66003;52.286;104.306;2023-12-28T00:25:06;96965.47;;;-1.39;45.20
77077;BME280;66003;52.286;104.306;2023-12-28T00:27:32;96954.28;;;-1.29;45.43
77077;BME280;66003;52.286;104.306;2023-12-28T00:30:05;96952.22;;;-1.27;45.38
77077;BME280;66003;52.286;104.306;2023-12-28T00:32:32;96959.13;;;-1.26;45.46
77077;BME280;66003;52.286;104.306;2023-12-28T00:34:58;96962.69;;;-1.21;45.21
77077;BME280;66003;52.286;104.306;2023-12-28T00:37:24;96960.38;;;-1.17;45.51
77077;BME280;66003;52.286;104.306;2023-12-28T00:39:50;96965.84;;;-1.12;45.15
77077;BME280;66003;52.286;104.306;2023-12-28T00:42:18;96958.06;;;-1.13;45.00
77077;BME280;66003;52.286;104.306;2023-12-28T00:44:45;96964.19;;;-1.13;45.10
77077;BME280;66003;52.286;104.306;2023-12-28T00:47:11;96962.81;;;-1.04;45.11
77077;BME280;66003;52.286;104.306;2023-12-28T00:49:37;96964.88;;;-1.06;44.92
77077;BME280;66003;52.286;104.306;2023-12-28T00:52:04;96963.72;;;-1.10;44.84
77077;BME280;66003;52.286;104.306;2023-12-28T00:54:30;96961.66;;;-1.08;45.20
77077;BME280;66003;52.286;104.306;2023-12-28T00:56:57;96961.19;;;-1.05;45.06
77077;BME280;66003;52.286;104.306;2023-12-28T00:59:23;96958.88;;;-1.01;44.99
77077;BME280;66003;52.286;104.306;2023-12-28T01:01:49;96963.38;;;-1.02;44.89
77077;BME280;66003;52.286;104.306;2023-12-28T01:04:15;96964.19;;;-1.01;44.91
77077;BME280;66003;52.286;104.306;2023-12-28T01:06:42;96961.41;;;-0.95;44.88
77077;BME280;66003;52.286;104.306;2023-12-28T01:09:08;96957.72;;;-0.94;44.89
77077;BME280;66003;52.286;104.306;2023-12-28T01:11:35;96963.59;;;-0.92;44.93
77077;BME280;66003;52.286;104.306;2023-12-28T01:14:01;96957.13;;;-0.96;44.34
77077;BME280;66003;52.286;104.306;2023-12-28T01:16:27;96954.28;;;-1.06;44.75
77077;BME280;66003;52.286;104.306;2023-12-28T01:18:54;96956.69;;;-1.16;44.35
77077;BME280;66003;52.286;104.306;2023-12-28T01:21:20;96950.72;;;-1.11;45.18
77077;BME280;66003;52.286;104.306;2023-12-28T01:23:47;96949.09;;;-1.12;44.49
77077;BME280;66003;52.286;104.306;2023-12-28T01:26:13;96949.09;;;-1.24;44.36
77077;BME280;66003;52.286;104.306;2023-12-28T01:28:40;96944.41;;;-1.34;45.05
77077;BME280;66003;52.286;104.306;2023-12-28T01:31:06;96949.56;;;-1.39;45.02
77077;BME280;66003;52.286;104.306;2023-12-28T01:33:32;96949.59;;;-1.50;44.97
77077;BME280;66003;52.286;104.306;2023-12-28T01:35:59;96946.13;;;-1.51;45.13
77077;BME280;66003;52.286;104.306;2023-12-28T01:38:25;96942.31;;;-1.55;44.96
77077;BME280;66003;52.286;104.306;2023-12-28T01:40:51;96932.53;;;-1.55;45.28
77077;BME280;66003;52.286;104.306;2023-12-28T01:43:17;96935.53;;;-1.51;45.26
77077;BME280;66003;52.286;104.306;2023-12-28T01:45:45;96928.84;;;-1.53;45.05
77077;BME280;66003;52.286;104.306;2023-12-28T01:48:11;96932.75;;;-1.44;45.33
77077;BME280;66003;52.286;104.306;2023-12-28T01:50:39;96928.75;;;-1.59;45.28
77077;BME280;66003;52.286;104.306;2023-12-28T01:53:06;96929.63;;;-1.53;45.76
77077;BME280;66003;52.286;104.306;2023-12-28T01:55:34;96923.88;;;-1.38;45.35
77077;BME280;66003;52.286;104.306;2023-12-28T01:58:00;96914.94;;;-1.21;44.98
77077;BME280;66003;52.286;104.306;2023-12-28T02:00:26;96923.03;;;-1.27;44.59
77077;BME280;66003;52.286;104.306;2023-12-28T02:02:53;96933.41;;;-1.26;44.72
77077;BME280;66003;52.286;104.306;2023-12-28T02:05:21;96924.66;;;-1.26;45.34
77077;BME280;66003;52.286;104.306;2023-12-28T02:07:47;96917.94;;;-1.17;44.49
77077;BME280;66003;52.286;104.306;2023-12-28T02:10:13;96912.78;;;-1.12;44.77
77077;BME280;66003;52.286;104.306;2023-12-28T02:12:39;96910.69;;;-1.10;45.12
77077;BME280;66003;52.286;104.306;2023-12-28T02:15:06;96910.94;;;-1.11;44.97
77077;BME280;66003;52.286;104.306;2023-12-28T02:17:52;96922.78;;;-1.02;44.80
77077;BME280;66003;52.286;104.306;2023-12-28T02:20:41;96913.31;;;-0.98;45.01
77077;BME280;66003;52.286;104.306;2023-12-28T02:23:09;96911.22;;;-0.96;44.97
77077;BME280;66003;52.286;104.306;2023-12-28T02:25:36;96910.03;;;-0.77;44.31
77077;BME280;66003;52.286;104.306;2023-12-28T02:28:02;96908.22;;;-0.88;43.99
77077;BME280;66003;52.286;104.306;2023-12-28T02:30:28;96907.53;;;-0.95;44.23
77077;BME280;66003;52.286;104.306;2023-12-28T02:33:19;96897.38;;;-0.87;44.41
77077;BME280;66003;52.286;104.306;2023-12-28T02:35:59;96900.94;;;-0.93;44.68
77077;BME280;66003;52.286;104.306;2023-12-28T02:38:28;96902.34;;;-0.90;44.77
77077;BME280;66003;52.286;104.306;2023-12-28T02:40:56;96892.88;;;-0.98;44.49
77077;BME280;66003;52.286;104.306;2023-12-28T02:43:23;96889.25;;;-0.80;44.59
77077;BME280;66003;52.286;104.306;2023-12-28T02:45:49;96889.41;;;-0.98;44.11
77077;BME280;66003;52.286;104.306;2023-12-28T02:48:15;96891.06;;;-1.09;44.49
77077;BME280;66003;52.286;104.306;2023-12-28T02:50:41;96891.41;;;-1.05;44.68
77077;BME280;66003;52.286;104.306;2023-12-28T02:53:07;96893.25;;;-1.06;44.27
77077;BME280;66003;52.286;104.306;2023-12-28T02:55:33;96885.88;;;-1.04;45.02
77077;BME280;66003;52.286;104.306;2023-12-28T02:58:00;96887.19;;;-0.78;44.82
77077;BME280;66003;52.286;104.306;2023-12-28T03:00:27;96881.13;;;-0.73;44.30
77077;BME280;66003;52.286;104.306;2023-12-28T03:02:53;96899.22;;;-0.87;44.43
77077;BME280;66003;52.286;104.306;2023-12-28T03:05:20;96890.53;;;-0.82;44.34
77077;BME280;66003;52.286;104.306;2023-12-28T03:07:49;96886.50;;;-0.85;44.05
77077;BME280;66003;52.286;104.306;2023-12-28T03:10:16;96883.94;;;-0.80;44.53
77077;BME280;66003;52.286;104.306;2023-12-28T03:12:42;96892.78;;;-0.74;44.67
77077;BME280;66003;52.286;104.306;2023-12-28T03:15:08;96881.88;;;-0.78;44.12
77077;BME280;66003;52.286;104.306;2023-12-28T03:17:35;96885.50;;;-0.67;44.29
77077;BME280;66003;52.286;104.306;2023-12-28T03:20:03;96887.59;;;-0.69;44.04
77077;BME280;66003;52.286;104.306;2023-12-28T03:22:30;96882.94;;;-0.62;44.16
77077;BME280;66003;52.286;104.306;2023-12-28T03:24:57;96888.72;;;-0.65;44.18
77077;BME280;66003;52.286;104.306;2023-12-28T03:27:23;96879.56;;;-0.58;44.51
77077;BME280;66003;52.286;104.306;2023-12-28T03:29:49;96877.78;;;-0.69;43.79
77077;BME280;66003;52.286;104.306;2023-12-28T03:32:15;96873.22;;;-0.85;44.21
77077;BME280;66003;52.286;104.306;2023-12-28T03:34:42;96870.84;;;-0.98;44.38
77077;BME280;66003;52.286;104.306;2023-12-28T03:37:08;96867.69;;;-1.12;44.55
77077;BME280;66003;52.286;104.306;2023-12-28T03:39:36;96867.22;;;-1.21;45.59
77077;BME280;66003;52.286;104.306;2023-12-28T03:42:03;96858.09;;;-1.01;44.58
77077;BME280;66003;52.286;104.306;2023-12-28T03:44:29;96861.22;;;-1.16;44.35
77077;BME280;66003;52.286;104.306;2023-12-28T03:46:56;96853.03;;;-1.14;44.60
77077;BME280;66003;52.286;104.306;2023-12-28T03:49:23;96863.63;;;-1.14;44.56
77077;BME280;66003;52.286;104.306;2023-12-28T03:51:50;96860.97;;;-1.03;44.28
77077;BME280;66003;52.286;104.306;2023-12-28T03:54:17;96846.75;;;-0.97;45.23
77077;BME280;66003;52.286;104.306;2023-12-28T03:56:44;96836.44;;;-0.65;44.58
77077;BME280;66003;52.286;104.306;2023-12-28T03:59:10;96835.56;;;-0.54;44.04
77077;BME280;66003;52.286;104.306;2023-12-28T04:01:36;96827.44;;;-0.47;44.41
77077;BME280;66003;52.286;104.306;2023-12-28T04:04:03;96822.63;;;-0.33;43.93
77077;BME280;66003;52.286;104.306;2023-12-28T04:06:29;96821.34;;;-0.31;43.49
77077;BME280;66003;52.286;104.306;2023-12-28T04:08:55;96819.41;;;-0.19;43.69
77077;BME280;66003;52.286;104.306;2023-12-28T04:11:21;96814.56;;;-0.22;44.09
77077;BME280;66003;52.286;104.306;2023-12-28T04:13:47;96808.69;;;-0.24;43.82
77077;BME280;66003;52.286;104.306;2023-12-28T04:16:14;96808.69;;;-0.07;43.86
77077;BME280;66003;52.286;104.306;2023-12-28T04:18:41;96798.63;;;-0.05;43.87
77077;BME280;66003;52.286;104.306;2023-12-28T04:21:09;96794.97;;;0.01;43.78
77077;BME280;66003;52.286;104.306;2023-12-28T04:23:36;96794.75;;;-0.14;43.63
77077;BME280;66003;52.286;104.306;2023-12-28T04:26:03;96790.88;;;-0.06;43.70
77077;BME280;66003;52.286;104.306;2023-12-28T04:28:29;96785.97;;;0.02;43.66
77077;BME280;66003;52.286;104.306;2023-12-28T04:30:55;96785.97;;;0.24;43.56
77077;BME280;66003;52.286;104.306;2023-12-28T04:33:22;96782.75;;;0.22;43.75
77077;BME280;66003;52.286;104.306;2023-12-28T04:35:48;96774.78;;;0.22;43.35
77077;BME280;66003;52.286;104.306;2023-12-28T04:38:14;96767.84;;;0.21;43.71
77077;BME280;66003;52.286;104.306;2023-12-28T04:40:41;96769.81;;;0.09;43.18
77077;BME280;66003;52.286;104.306;2023-12-28T04:43:07;96770.81;;;0.03;43.46
77077;BME280;66003;52.286;104.306;2023-12-28T04:45:33;96764.47;;;0.04;44.19
77077;BME280;66003;52.286;104.306;2023-12-28T04:47:59;96763.22;;;0.11;43.56
77077;BME280;66003;52.286;104.306;2023-12-28T04:50:25;96765.75;;;0.23;43.45
77077;BME280;66003;52.286;104.306;2023-12-28T04:52:52;96767.06;;;0.42;43.64
77077;BME280;66003;52.286;104.306;2023-12-28T04:55:18;96753.25;;;0.45;43.38
77077;BME280;66003;52.286;104.306;2023-12-28T04:57:44;96762.69;;;0.53;43.34
77077;BME280;66003;52.286;104.306;2023-12-28T05:00:10;96758.50;;;0.62;42.75
77077;BME280;66003;52.286;104.306;2023-12-28T05:02:37;96762.00;;;0.68;42.97
77077;BME280;66003;52.286;104.306;2023-12-28T05:05:03;96750.88;;;0.71;42.02
77077;BME280;66003;52.286;104.306;2023-12-28T05:07:30;96755.66;;;0.69;42.05
77077;BME280;66003;52.286;104.306;2023-12-28T05:09:56;96749.25;;;0.65;41.57
77077;BME280;66003;52.286;104.306;2023-12-28T05:12:22;96750.03;;;0.65;41.60
77077;BME280;66003;52.286;104.306;2023-12-28T05:14:48;96751.91;;;0.65;42.11
77077;BME280;66003;52.286;104.306;2023-12-28T05:17:15;96746.38;;;0.71;41.69
77077;BME280;66003;52.286;104.306;2023-12-28T05:19:41;96746.34;;;0.66;41.45
77077;BME280;66003;52.286;104.306;2023-12-28T05:22:07;96740.16;;;0.60;41.94
77077;BME280;66003;52.286;104.306;2023-12-28T05:24:36;96735.63;;;0.61;42.02
77077;BME280;66003;52.286;104.306;2023-12-28T05:27:03;96734.69;;;0.72;42.61
77077;BME280;66003;52.286;104.306;2023-12-28T05:29:29;96730.97;;;0.73;42.08
77077;BME280;66003;52.286;104.306;2023-12-28T05:31:55;96729.75;;;0.86;42.29
77077;BME280;66003;52.286;104.306;2023-12-28T05:34:21;96729.22;;;0.84;41.65
77077;BME280;66003;52.286;104.306;2023-12-28T05:36:48;96721.72;;;0.81;41.63
77077;BME280;66003;52.286;104.306;2023-12-28T05:39:14;96721.03;;;0.90;41.39
77077;BME280;66003;52.286;104.306;2023-12-28T05:41:40;96722.19;;;1.00;42.42
77077;BME280;66003;52.286;104.306;2023-12-28T05:44:06;96715.81;;;1.06;41.71
77077;BME280;66003;52.286;104.306;2023-12-28T05:46:33;96715.81;;;1.06;41.32
77077;BME280;66003;52.286;104.306;2023-12-28T05:48:59;96722.50;;;1.08;41.83
77077;BME280;66003;52.286;104.306;2023-12-28T05:51:25;96710.16;;;0.97;42.05
77077;BME280;66003;52.286;104.306;2023-12-28T05:53:51;96706.75;;;1.02;41.68
77077;BME280;66003;52.286;104.306;2023-12-28T05:56:19;96697.38;;;0.94;42.45
77077;BME280;66003;52.286;104.306;2023-12-28T05:58:45;96691.22;;;0.88;42.30
77077;BME280;66003;52.286;104.306;2023-12-28T06:01:11;96694.16;;;0.92;41.84
77077;BME280;66003;52.286;104.306;2023-12-28T06:03:38;96689.88;;;0.91;42.29
77077;BME280;66003;52.286;104.306;2023-12-28T06:06:04;96690.41;;;0.88;42.04
77077;BME280;66003;52.286;104.306;2023-12-28T06:08:30;96687.44;;;0.84;42.31
77077;BME280;66003;52.286;104.306;2023-12-28T06:10:57;96688.78;;;1.14;42.14
77077;BME280;66003;52.286;104.306;2023-12-28T06:13:23;96689.59;;;1.19;41.60
77077;BME280;66003;52.286;104.306;2023-12-28T06:15:49;96676.84;;;1.26;41.91
77077;BME280;66003;52.286;104.306;2023-12-28T06:18:16;96680.25;;;1.17;42.09
77077;BME280;66003;52.286;104.306;2023-12-28T06:20:42;96681.91;;;1.23;41.40
77077;BME280;66003;52.286;104.306;2023-12-28T06:23:08;96676.50;;;1.13;41.82
77077;BME280;66003;52.286;104.306;2023-12-28T06:25:34;96682.88;;;1.12;42.08
77077;BME280;66003;52.286;104.306;2023-12-28T06:28:01;96681.28;;;1.11;41.66
77077;BME280;66003;52.286;104.306;2023-12-28T06:30:27;96672.25;;;1.17;41.62
77077;BME280;66003;52.286;104.306;2023-12-28T06:32:55;96669.09;;;1.20;40.94
77077;BME280;66003;52.286;104.306;2023-12-28T06:35:21;96665.78;;;1.35;41.31
77077;BME280;66003;52.286;104.306;2023-12-28T06:37:47;96663.53;;;1.26;41.26
77077;BME280;66003;52.286;104.306;2023-12-28T06:40:14;96659.47;;;1.46;41.68
77077;BME280;66003;52.286;104.306;2023-12-28T06:42:40;96667.75;;;1.49;41.65
77077;BME280;66003;52.286;104.306;2023-12-28T06:45:09;96658.66;;;1.45;41.08
77077;BME280;66003;52.286;104.306;2023-12-28T06:47:36;96662.66;;;1.11;41.27
77077;BME280;66003;52.286;104.306;2023-12-28T06:50:03;96662.91;;;1.09;41.50
77077;BME280;66003;52.286;104.306;2023-12-28T06:52:30;96664.25;;;1.12;41.28
77077;BME280;66003;52.286;104.306;2023-12-28T06:54:57;96650.50;;;0.88;41.43
77077;BME280;66003;52.286;104.306;2023-12-28T06:57:23;96658.22;;;0.89;41.16
77077;BME280;66003;52.286;104.306;2023-12-28T06:59:49;96658.38;;;1.10;41.08
77077;BME280;66003;52.286;104.306;2023-12-28T07:02:16;96662.47;;;1.22;41.25
77077;BME280;66003;52.286;104.306;2023-12-28T07:04:43;96662.59;;;1.06;41.61
77077;BME280;66003;52.286;104.306;2023-12-28T07:07:09;96667.47;;;1.14;41.58
77077;BME280;66003;52.286;104.306;2023-12-28T07:09:35;96661.88;;;1.15;41.27
77077;BME280;66003;52.286;104.306;2023-12-28T07:12:03;96665.69;;;1.24;41.17
77077;BME280;66003;52.286;104.306;2023-12-28T07:14:29;96661.53;;;1.07;41.33
77077;BME280;66003;52.286;104.306;2023-12-28T07:16:56;96663.38;;;1.01;41.61
77077;BME280;66003;52.286;104.306;2023-12-28T07:19:22;96653.56;;;1.07;41.63
77077;BME280;66003;52.286;104.306;2023-12-28T07:21:48;96668.22;;;1.09;41.00
77077;BME280;66003;52.286;104.306;2023-12-28T07:24:14;96662.91;;;1.09;41.52
77077;BME280;66003;52.286;104.306;2023-12-28T07:26:40;96665.34;;;1.16;41.62
77077;BME280;66003;52.286;104.306;2023-12-28T07:29:06;96675.53;;;1.24;40.98
77077;BME280;66003;52.286;104.306;2023-12-28T07:31:33;96662.66;;;1.16;40.92
77077;BME280;66003;52.286;104.306;2023-12-28T07:33:59;96656.53;;;1.15;40.78
77077;BME280;66003;52.286;104.306;2023-12-28T07:36:25;96662.84;;;1.04;41.30
77077;BME280;66003;52.286;104.306;2023-12-28T07:38:51;96664.72;;;1.04;41.21
77077;BME280;66003;52.286;104.306;2023-12-28T07:41:18;96664.69;;;0.98;41.60
77077;BME280;66003;52.286;104.306;2023-12-28T07:43:44;96655.91;;;0.98;41.06
77077;BME280;66003;52.286;104.306;2023-12-28T07:46:10;96664.19;;;1.02;40.99
77077;BME280;66003;52.286;104.306;2023-12-28T07:48:36;96663.91;;;1.03;40.81
77077;BME280;66003;52.286;104.306;2023-12-28T07:51:05;96654.41;;;1.12;40.96
77077;BME280;66003;52.286;104.306;2023-12-28T07:53:31;96650.69;;;1.13;41.04
77077;BME280;66003;52.286;104.306;2023-12-28T07:55:57;96654.38;;;1.07;41.25
77077;BME280;66003;52.286;104.306;2023-12-28T07:58:24;96652.56;;;1.13;41.28
77077;BME280;66003;52.286;104.306;2023-12-28T08:00:50;96653.38;;;1.18;40.69
77077;BME280;66003;52.286;104.306;2023-12-28T08:03:17;96655.75;;;1.15;40.69
77077;BME280;66003;52.286;104.306;2023-12-28T08:05:44;96650.75;;;1.23;40.52
77077;BME280;66003;52.286;104.306;2023-12-28T08:08:10;96653.38;;;1.18;40.81
77077;BME280;66003;52.286;104.306;2023-12-28T08:10:36;96650.66;;;1.08;41.10
77077;BME280;66003;52.286;104.306;2023-12-28T08:13:02;96648.78;;;1.09;41.19
77077;BME280;66003;52.286;104.306;2023-12-28T08:15:28;96641.34;;;1.11;41.42
77077;BME280;66003;52.286;104.306;2023-12-28T08:17:55;96642.38;;;1.05;40.92
77077;BME280;66003;52.286;104.306;2023-12-28T08:20:21;96635.19;;;1.05;41.26
77077;BME280;66003;52.286;104.306;2023-12-28T08:22:47;96639.44;;;1.01;41.43
77077;BME280;66003;52.286;104.306;2023-12-28T08:25:13;96636.97;;;0.94;41.44
77077;BME280;66003;52.286;104.306;2023-12-28T08:27:39;96640.66;;;0.88;41.89
77077;BME280;66003;52.286;104.306;2023-12-28T08:30:06;96638.19;;;0.82;41.59
77077;BME280;66003;52.286;104.306;2023-12-28T08:32:32;96640.31;;;0.80;41.66
77077;BME280;66003;52.286;104.306;2023-12-28T08:34:58;96635.75;;;0.75;42.23
77077;BME280;66003;52.286;104.306;2023-12-28T08:37:25;96643.19;;;0.73;41.99
77077;BME280;66003;52.286;104.306;2023-12-28T08:39:51;96640.22;;;0.70;42.18
77077;BME280;66003;52.286;104.306;2023-12-28T08:42:17;96635.94;;;0.69;41.88
77077;BME280;66003;52.286;104.306;2023-12-28T08:44:43;96636.41;;;0.60;42.14
77077;BME280;66003;52.286;104.306;2023-12-28T08:47:09;96632.94;;;0.55;42.24
77077;BME280;66003;52.286;104.306;2023-12-28T08:49:36;96634.16;;;0.47;41.98
77077;BME280;66003;52.286;104.306;2023-12-28T08:52:02;96632.53;;;0.41;42.56
77077;BME280;66003;52.286;104.306;2023-12-28T08:54:29;96638.09;;;0.40;42.37
77077;BME280;66003;52.286;104.306;2023-12-28T08:56:55;96640.13;;;0.33;42.47
77077;BME280;66003;52.286;104.306;2023-12-28T08:59:21;96640.84;;;0.23;42.81
77077;BME280;66003;52.286;104.306;2023-12-28T09:01:47;96642.13;;;0.20;42.78
77077;BME280;66003;52.286;104.306;2023-12-28T09:04:14;96635.09;;;0.09;42.61
77077;BME280;66003;52.286;104.306;2023-12-28T09:06:40;96637.16;;;0.02;43.22
77077;BME280;66003;52.286;104.306;2023-12-28T09:09:06;96639.69;;;-0.08;43.40
77077;BME280;66003;52.286;104.306;2023-12-28T09:11:32;96633.22;;;-0.17;43.15
77077;BME280;66003;52.286;104.306;2023-12-28T09:13:59;96640.00;;;-0.26;42.76
77077;BME280;66003;52.286;104.306;2023-12-28T09:16:25;96635.00;;;-0.44;42.82
77077;BME280;66003;52.286;104.306;2023-12-28T09:18:52;96636.16;;;-0.57;43.52
77077;BME280;66003;52.286;104.306;2023-12-28T09:21:18;96638.69;;;-0.67;43.36
77077;BME280;66003;52.286;104.306;2023-12-28T09:23:44;96640.84;;;-0.81;43.74
77077;BME280;66003;52.286;104.306;2023-12-28T09:26:10;96647.31;;;-0.94;43.92
77077;BME280;66003;52.286;104.306;2023-12-28T09:28:36;96638.63;;;-1.06;44.23
77077;BME280;66003;52.286;104.306;2023-12-28T09:31:03;96644.22;;;-1.19;44.19
77077;BME280;66003;52.286;104.306;2023-12-28T09:33:30;96645.56;;;-1.33;44.45
77077;BME280;66003;52.286;104.306;2023-12-28T09:35:56;96647.25;;;-1.44;44.49
77077;BME280;66003;52.286;104.306;2023-12-28T09:38:22;96651.50;;;-1.60;44.86
77077;BME280;66003;52.286;104.306;2023-12-28T09:40:53;96641.03;;;-1.66;44.90
77077;BME280;66003;52.286;104.306;2023-12-28T09:43:23;96642.00;;;-1.72;45.17
77077;BME280;66003;52.286;104.306;2023-12-28T09:45:51;96640.22;;;-1.83;44.53
77077;BME280;66003;52.286;104.306;2023-12-28T09:48:18;96638.06;;;-1.98;44.91
77077;BME280;66003;52.286;104.306;2023-12-28T09:50:57;96636.13;;;-2.03;44.99
77077;BME280;66003;52.286;104.306;2023-12-28T09:53:25;96638.59;;;-2.24;45.29
77077;BME280;66003;52.286;104.306;2023-12-28T09:55:52;96638.75;;;-2.31;45.18
77077;BME280;66003;52.286;104.306;2023-12-28T09:58:20;96634.28;;;-2.42;45.15
77077;BME280;66003;52.286;104.306;2023-12-28T10:00:48;96634.91;;;-2.52;45.48
77077;BME280;66003;52.286;104.306;2023-12-28T10:03:16;96640.19;;;-2.63;45.58
77077;BME280;66003;52.286;104.306;2023-12-28T10:05:43;96636.41;;;-2.68;45.59
77077;BME280;66003;52.286;104.306;2023-12-28T10:08:12;96630.41;;;-2.75;45.80
77077;BME280;66003;52.286;104.306;2023-12-28T10:10:43;96636.88;;;-2.82;45.75
77077;BME280;66003;52.286;104.306;2023-12-28T10:13:11;96645.38;;;-2.92;45.58
77077;BME280;66003;52.286;104.306;2023-12-28T10:15:37;96638.84;;;-3.01;45.38
77077;BME280;66003;52.286;104.306;2023-12-28T10:18:04;96642.59;;;-3.09;45.29
77077;BME280;66003;52.286;104.306;2023-12-28T10:20:31;96648.00;;;-3.15;45.20
77077;BME280;66003;52.286;104.306;2023-12-28T10:23:00;96641.69;;;-3.26;45.83
77077;BME280;66003;52.286;104.306;2023-12-28T10:25:31;96642.25;;;-3.35;45.50
77077;BME280;66003;52.286;104.306;2023-12-28T10:28:04;96640.13;;;-3.45;45.88
77077;BME280;66003;52.286;104.306;2023-12-28T10:30:32;96643.94;;;-3.41;45.51
77077;BME280;66003;52.286;104.306;2023-12-28T10:32:58;96647.63;;;-3.42;45.59
77077;BME280;66003;52.286;104.306;2023-12-28T10:35:24;96642.13;;;-3.41;45.66
77077;BME280;66003;52.286;104.306;2023-12-28T10:37:52;96638.44;;;-3.40;45.71
77077;BME280;66003;52.286;104.306;2023-12-28T10:40:23;96633.16;;;-3.40;45.40
77077;BME280;66003;52.286;104.306;2023-12-28T10:42:55;96636.81;;;-3.41;45.22
77077;BME280;66003;52.286;104.306;2023-12-28T10:45:25;96636.16;;;-3.36;44.90
77077;BME280;66003;52.286;104.306;2023-12-28T10:48:00;96630.41;;;-3.33;45.65
77077;BME280;66003;52.286;104.306;2023-12-28T10:50:40;96628.91;;;-3.29;45.24
77077;BME280;66003;52.286;104.306;2023-12-28T10:58:52;96623.88;;;-2.84;45.16
77077;BME280;66003;52.286;104.306;2023-12-28T11:01:28;96610.53;;;-2.77;44.24
77077;BME280;66003;52.286;104.306;2023-12-28T11:04:21;96606.34;;;-2.61;43.85
77077;BME280;66003;52.286;104.306;2023-12-28T11:06:50;96608.53;;;-2.58;43.50
77077;BME280;66003;52.286;104.306;2023-12-28T11:09:17;96600.09;;;-2.32;43.61
77077;BME280;66003;52.286;104.306;2023-12-28T11:11:44;96600.13;;;-2.44;42.65
77077;BME280;66003;52.286;104.306;2023-12-28T11:14:12;96603.22;;;-2.47;43.07
77077;BME280;66003;52.286;104.306;2023-12-28T11:16:40;96600.72;;;-2.53;43.21
77077;BME280;66003;52.286;104.306;2023-12-28T11:19:08;96604.25;;;-2.48;43.90
77077;BME280;66003;52.286;104.306;2023-12-28T11:21:35;96600.78;;;-2.37;43.83
77077;BME280;66003;52.286;104.306;2023-12-28T11:24:02;96597.53;;;-2.27;43.64
77077;BME280;66003;52.286;104.306;2023-12-28T11:26:29;96605.38;;;-2.04;43.51
77077;BME280;66003;52.286;104.306;2023-12-28T11:29:04;96601.47;;;-2.01;43.48
77077;BME280;66003;52.286;104.306;2023-12-28T11:31:34;96595.06;;;-2.05;43.03
77077;BME280;66003;52.286;104.306;2023-12-28T11:34:01;96595.28;;;-2.07;43.23
77077;BME280;66003;52.286;104.306;2023-12-28T11:36:35;96597.25;;;-2.14;43.10
77077;BME280;66003;52.286;104.306;2023-12-28T11:39:03;96597.53;;;-2.27;42.96
77077;BME280;66003;52.286;104.306;2023-12-28T11:41:33;96604.19;;;-2.24;43.18
77077;BME280;66003;52.286;104.306;2023-12-28T11:44:04;96605.03;;;-2.36;43.26
77077;BME280;66003;52.286;104.306;2023-12-28T11:46:32;96602.50;;;-2.31;43.47
77077;BME280;66003;52.286;104.306;2023-12-28T11:49:08;96599.25;;;-2.21;43.52
77077;BME280;66003;52.286;104.306;2023-12-28T11:51:38;96610.72;;;-2.15;43.64
77077;BME280;66003;52.286;104.306;2023-12-28T11:54:06;96601.94;;;-2.04;43.57
77077;BME280;66003;52.286;104.306;2023-12-28T11:56:32;96609.50;;;-1.96;43.16
77077;BME280;66003;52.286;104.306;2023-12-28T11:58:59;96601.50;;;-1.84;42.89
77077;BME280;66003;52.286;104.306;2023-12-28T12:01:25;96599.03;;;-1.74;42.50
77077;BME280;66003;52.286;104.306;2023-12-28T12:03:53;96590.63;;;-1.71;42.34
77077;BME280;66003;52.286;104.306;2023-12-28T12:06:19;96581.94;;;-1.67;42.37
77077;BME280;66003;52.286;104.306;2023-12-28T12:08:46;96579.63;;;-1.63;42.40
77077;BME280;66003;52.286;104.306;2023-12-28T12:11:12;96582.53;;;-1.48;42.89
77077;BME280;66003;52.286;104.306;2023-12-28T12:13:39;96581.00;;;-1.61;42.44
77077;BME280;66003;52.286;104.306;2023-12-28T12:16:06;96582.38;;;-1.58;42.50
77077;BME280;66003;52.286;104.306;2023-12-28T12:18:34;96580.53;;;-1.58;42.37
77077;BME280;66003;52.286;104.306;2023-12-28T12:21:01;96563.75;;;-1.46;42.85
77077;BME280;66003;52.286;104.306;2023-12-28T12:23:28;96562.75;;;-1.40;41.98
77077;BME280;66003;52.286;104.306;2023-12-28T12:25:55;96569.75;;;-1.51;41.66
77077;BME280;66003;52.286;104.306;2023-12-28T12:28:21;96570.31;;;-1.49;42.40
77077;BME280;66003;52.286;104.306;2023-12-28T12:30:53;96574.25;;;-1.51;42.24
77077;BME280;66003;52.286;104.306;2023-12-28T12:33:21;96578.75;;;-1.52;42.07
77077;BME280;66003;52.286;104.306;2023-12-28T12:35:47;96578.66;;;-1.40;42.22
77077;BME280;66003;52.286;104.306;2023-12-28T12:38:14;96582.78;;;-1.49;42.13
77077;BME280;66003;52.286;104.306;2023-12-28T12:40:40;96582.03;;;-1.45;42.50
77077;BME280;66003;52.286;104.306;2023-12-28T12:43:06;96580.75;;;-1.42;42.26
77077;BME280;66003;52.286;104.306;2023-12-28T12:45:36;96589.19;;;-1.29;42.61
77077;BME280;66003;52.286;104.306;2023-12-28T12:48:03;96599.00;;;-1.29;42.11